Milam, Texas
Current Conditions -  °F | °C
As of 3:56 AM on Friday 21 Nov 2014 (Local Time) from KAQV Reporting Station
Overcast Overcast  
Wind Chill: 58°   Ceiling: 6000
Heat Index: 58°   Visibility: 10mi
Dew Point: 49°   Wind: 6mph
Humidity: 72%   Direction: 170°S
Pressure: 30.16"   Gusts: NA
Location:  31.43°N, 93.85°W
Report Text: KAQV 210956Z AUTO 17005KT 10SM BKN060 OVC075 14/09 A3016 RMK AO2 SLP211 T01440094
Loading
Personal Weather Stations






























Interactive Weather Map New forecast layout! Learn more

10-Day Weather Forecast

Advertisements
Track Severe Weather on mobile